Port Haywood, Virginia
Current Conditions -  °F | °C
As of 6:35 AM on Tuesday 21 Oct 2014 (Local Time) from KW75 Reporting Station
Broken Clouds Broken Clouds  
Wind Chill: 56°   Ceiling: 12000
Heat Index: 56°   Visibility: 10mi
Dew Point: 54°   Wind: 3mph
Humidity: 90%   Direction: 210°SSW
Pressure: 29.87"   Gusts: NA
Location:  37.39°N, 76.32°W
Report Text: KW75 211035Z AUTO 21003KT 10SM BKN120 14/12 A2987 RMK AO1 T01360120
Loading
Personal Weather Stations






























Interactive Weather Map
Tropical Storm Tracking
New forecast layout! Learn more

10-Day Weather Forecast

Advertisements
Track Severe Weather on mobile